sensor_id;sensor_type;location;lat;lon;timestamp;P1;durP1;ratioP1;P2;durP2;ratioP2
45694;SDS011;31408;45.468;9.124;2023-03-14T00:01:45;24.77;;;13.52;;
45694;SDS011;31408;45.468;9.124;2023-03-14T00:04:11;22.10;;;11.80;;
45694;SDS011;31408;45.468;9.124;2023-03-14T00:06:36;24.98;;;13.02;;
45694;SDS011;31408;45.468;9.124;2023-03-14T00:16:36;24.33;;;12.98;;
45694;SDS011;31408;45.468;9.124;2023-03-14T00:19:02;22.30;;;11.60;;
45694;SDS011;31408;45.468;9.124;2023-03-14T00:21:27;25.65;;;11.35;;
45694;SDS011;31408;45.468;9.124;2023-03-14T00:23:53;28.60;;;12.15;;
45694;SDS011;31408;45.468;9.124;2023-03-14T00:26:19;25.42;;;11.82;;
45694;SDS011;31408;45.468;9.124;2023-03-14T00:28:46;27.92;;;12.68;;
45694;SDS011;31408;45.468;9.124;2023-03-14T00:31:13;27.67;;;13.32;;
45694;SDS011;31408;45.468;9.124;2023-03-14T00:33:41;22.40;;;11.48;;
45694;SDS011;31408;45.468;9.124;2023-03-14T00:36:12;25.60;;;13.80;;
45694;SDS011;31408;45.468;9.124;2023-03-14T00:38:39;26.33;;;13.82;;
45694;SDS011;31408;45.468;9.124;2023-03-14T00:41:07;27.23;;;11.85;;
45694;SDS011;31408;45.468;9.124;2023-03-14T00:43:37;29.42;;;12.75;;
45694;SDS011;31408;45.468;9.124;2023-03-14T00:46:03;28.88;;;12.48;;
45694;SDS011;31408;45.468;9.124;2023-03-14T00:48:29;25.25;;;13.35;;
45694;SDS011;31408;45.468;9.124;2023-03-14T00:50:54;20.95;;;11.85;;
45694;SDS011;31408;45.468;9.124;2023-03-14T00:53:20;24.35;;;12.63;;
45694;SDS011;31408;45.468;9.124;2023-03-14T00:55:46;22.85;;;11.77;;
45694;SDS011;31408;45.468;9.124;2023-03-14T00:58:12;25.70;;;12.68;;
45694;SDS011;31408;45.468;9.124;2023-03-14T01:00:38;25.70;;;11.02;;
45694;SDS011;31408;45.468;9.124;2023-03-14T01:03:05;25.67;;;12.48;;
45694;SDS011;31408;45.468;9.124;2023-03-14T01:05:31;23.75;;;12.18;;
45694;SDS011;31408;45.468;9.124;2023-03-14T01:07:56;25.48;;;12.20;;
45694;SDS011;31408;45.468;9.124;2023-03-14T01:10:22;25.17;;;12.30;;
45694;SDS011;31408;45.468;9.124;2023-03-14T01:12:48;22.88;;;11.48;;
45694;SDS011;31408;45.468;9.124;2023-03-14T01:15:13;24.23;;;11.18;;
45694;SDS011;31408;45.468;9.124;2023-03-14T01:17:39;25.88;;;11.63;;
45694;SDS011;31408;45.468;9.124;2023-03-14T01:20:05;21.38;;;10.60;;
45694;SDS011;31408;45.468;9.124;2023-03-14T01:22:34;24.00;;;11.88;;
45694;SDS011;31408;45.468;9.124;2023-03-14T01:25:00;29.17;;;11.05;;
45694;SDS011;31408;45.468;9.124;2023-03-14T01:27:26;20.88;;;11.07;;
45694;SDS011;31408;45.468;9.124;2023-03-14T01:29:52;22.17;;;11.07;;
45694;SDS011;31408;45.468;9.124;2023-03-14T01:32:17;24.40;;;11.13;;
45694;SDS011;31408;45.468;9.124;2023-03-14T01:34:43;21.35;;;10.68;;
45694;SDS011;31408;45.468;9.124;2023-03-14T01:37:09;22.70;;;11.32;;
45694;SDS011;31408;45.468;9.124;2023-03-14T01:39:36;22.35;;;10.43;;
45694;SDS011;31408;45.468;9.124;2023-03-14T01:42:01;21.83;;;10.93;;
45694;SDS011;31408;45.468;9.124;2023-03-14T01:44:27;24.65;;;9.88;;
45694;SDS011;31408;45.468;9.124;2023-03-14T01:46:52;20.30;;;9.23;;
45694;SDS011;31408;45.468;9.124;2023-03-14T01:49:26;23.00;;;11.05;;
45694;SDS011;31408;45.468;9.124;2023-03-14T01:54:37;20.83;;;10.68;;
45694;SDS011;31408;45.468;9.124;2023-03-14T01:57:25;22.58;;;10.15;;
45694;SDS011;31408;45.468;9.124;2023-03-14T02:00:17;19.35;;;9.73;;
45694;SDS011;31408;45.468;9.124;2023-03-14T02:02:44;22.55;;;10.93;;
45694;SDS011;31408;45.468;9.124;2023-03-14T02:05:12;23.75;;;10.93;;
45694;SDS011;31408;45.468;9.124;2023-03-14T02:10:27;16.85;;;8.85;;
45694;SDS011;31408;45.468;9.124;2023-03-14T02:13:00;21.33;;;9.85;;
45694;SDS011;31408;45.468;9.124;2023-03-14T02:15:53;21.10;;;9.27;;
45694;SDS011;31408;45.468;9.124;2023-03-14T02:18:44;21.60;;;10.15;;
45694;SDS011;31408;45.468;9.124;2023-03-14T02:24:43;22.57;;;10.43;;
45694;SDS011;31408;45.468;9.124;2023-03-14T02:27:13;21.58;;;10.88;;
45694;SDS011;31408;45.468;9.124;2023-03-14T02:29:46;22.08;;;10.68;;
45694;SDS011;31408;45.468;9.124;2023-03-14T02:32:15;22.23;;;9.85;;
45694;SDS011;31408;45.468;9.124;2023-03-14T02:34:42;21.52;;;10.20;;
45694;SDS011;31408;45.468;9.124;2023-03-14T02:37:09;20.60;;;10.20;;
45694;SDS011;31408;45.468;9.124;2023-03-14T02:39:36;20.20;;;9.15;;
45694;SDS011;31408;45.468;9.124;2023-03-14T02:42:04;20.10;;;9.45;;
45694;SDS011;31408;45.468;9.124;2023-03-14T02:44:29;19.65;;;9.48;;
45694;SDS011;31408;45.468;9.124;2023-03-14T02:46:55;20.67;;;8.70;;
45694;SDS011;31408;45.468;9.124;2023-03-14T02:49:21;24.42;;;9.20;;
45694;SDS011;31408;45.468;9.124;2023-03-14T02:55:33;16.83;;;9.15;;
45694;SDS011;31408;45.468;9.124;2023-03-14T02:58:04;20.55;;;9.35;;
45694;SDS011;31408;45.468;9.124;2023-03-14T03:00:31;22.13;;;8.88;;
45694;SDS011;31408;45.468;9.124;2023-03-14T03:02:58;14.35;;;8.00;;
45694;SDS011;31408;45.468;9.124;2023-03-14T03:05:24;20.95;;;9.63;;
45694;SDS011;31408;45.468;9.124;2023-03-14T03:07:49;16.63;;;8.52;;
45694;SDS011;31408;45.468;9.124;2023-03-14T03:10:15;20.40;;;9.77;;
45694;SDS011;31408;45.468;9.124;2023-03-14T03:12:46;18.75;;;8.73;;
45694;SDS011;31408;45.468;9.124;2023-03-14T03:15:11;17.65;;;9.20;;
45694;SDS011;31408;45.468;9.124;2023-03-14T03:17:37;24.27;;;9.52;;
45694;SDS011;31408;45.468;9.124;2023-03-14T03:20:04;18.77;;;9.95;;
45694;SDS011;31408;45.468;9.124;2023-03-14T03:22:33;18.90;;;9.48;;
45694;SDS011;31408;45.468;9.124;2023-03-14T03:25:01;20.83;;;9.70;;
45694;SDS011;31408;45.468;9.124;2023-03-14T03:27:33;23.73;;;11.32;;
45694;SDS011;31408;45.468;9.124;2023-03-14T03:30:00;17.98;;;9.32;;
45694;SDS011;31408;45.468;9.124;2023-03-14T03:32:30;23.70;;;9.75;;
45694;SDS011;31408;45.468;9.124;2023-03-14T03:34:55;19.85;;;11.00;;
45694;SDS011;31408;45.468;9.124;2023-03-14T03:37:21;18.80;;;10.38;;
45694;SDS011;31408;45.468;9.124;2023-03-14T03:39:46;22.13;;;11.02;;
45694;SDS011;31408;45.468;9.124;2023-03-14T03:42:12;21.52;;;12.02;;
45694;SDS011;31408;45.468;9.124;2023-03-14T03:44:37;21.38;;;10.43;;
45694;SDS011;31408;45.468;9.124;2023-03-14T03:47:03;25.77;;;9.15;;
45694;SDS011;31408;45.468;9.124;2023-03-14T03:49:29;20.02;;;9.57;;
45694;SDS011;31408;45.468;9.124;2023-03-14T03:51:55;16.70;;;8.75;;
45694;SDS011;31408;45.468;9.124;2023-03-14T03:54:21;22.60;;;10.38;;
45694;SDS011;31408;45.468;9.124;2023-03-14T03:56:46;19.83;;;10.57;;
45694;SDS011;31408;45.468;9.124;2023-03-14T03:59:12;18.52;;;9.00;;
45694;SDS011;31408;45.468;9.124;2023-03-14T04:01:37;22.15;;;10.80;;
45694;SDS011;31408;45.468;9.124;2023-03-14T04:04:03;23.00;;;10.73;;
45694;SDS011;31408;45.468;9.124;2023-03-14T04:06:28;22.02;;;10.48;;
45694;SDS011;31408;45.468;9.124;2023-03-14T04:08:57;19.63;;;9.80;;
45694;SDS011;31408;45.468;9.124;2023-03-14T04:14:02;17.42;;;8.77;;
45694;SDS011;31408;45.468;9.124;2023-03-14T04:16:29;24.13;;;11.82;;
45694;SDS011;31408;45.468;9.124;2023-03-14T04:21:27;20.40;;;10.52;;
45694;SDS011;31408;45.468;9.124;2023-03-14T04:23:55;23.73;;;11.63;;
45694;SDS011;31408;45.468;9.124;2023-03-14T04:26:22;23.40;;;11.30;;
45694;SDS011;31408;45.468;9.124;2023-03-14T04:28:48;21.38;;;11.20;;
45694;SDS011;31408;45.468;9.124;2023-03-14T04:31:18;25.90;;;11.82;;
45694;SDS011;31408;45.468;9.124;2023-03-14T04:33:45;23.60;;;11.23;;
45694;SDS011;31408;45.468;9.124;2023-03-14T04:36:12;24.65;;;12.32;;
45694;SDS011;31408;45.468;9.124;2023-03-14T04:38:37;24.23;;;11.68;;
45694;SDS011;31408;45.468;9.124;2023-03-14T04:41:03;22.55;;;11.65;;
45694;SDS011;31408;45.468;9.124;2023-03-14T04:43:31;24.48;;;11.20;;
45694;SDS011;31408;45.468;9.124;2023-03-14T04:46:02;22.48;;;11.52;;
45694;SDS011;31408;45.468;9.124;2023-03-14T04:48:28;24.95;;;11.30;;
45694;SDS011;31408;45.468;9.124;2023-03-14T04:50:53;27.27;;;12.63;;
45694;SDS011;31408;45.468;9.124;2023-03-14T04:53:19;28.08;;;12.45;;
45694;SDS011;31408;45.468;9.124;2023-03-14T04:55:48;27.98;;;13.70;;
45694;SDS011;31408;45.468;9.124;2023-03-14T04:58:17;25.70;;;12.00;;
45694;SDS011;31408;45.468;9.124;2023-03-14T05:00:44;24.23;;;12.07;;
45694;SDS011;31408;45.468;9.124;2023-03-14T05:03:31;25.92;;;12.27;;
45694;SDS011;31408;45.468;9.124;2023-03-14T05:06:13;25.10;;;11.57;;
45694;SDS011;31408;45.468;9.124;2023-03-14T05:08:58;27.20;;;13.15;;
45694;SDS011;31408;45.468;9.124;2023-03-14T05:11:37;26.55;;;11.57;;
45694;SDS011;31408;45.468;9.124;2023-03-14T05:14:14;21.23;;;10.60;;
45694;SDS011;31408;45.468;9.124;2023-03-14T05:16:58;26.77;;;12.07;;
45694;SDS011;31408;45.468;9.124;2023-03-14T05:19:36;28.45;;;12.10;;
45694;SDS011;31408;45.468;9.124;2023-03-14T05:22:14;23.42;;;12.43;;
45694;SDS011;31408;45.468;9.124;2023-03-14T05:24:53;25.35;;;13.65;;
45694;SDS011;31408;45.468;9.124;2023-03-14T05:30:20;23.08;;;10.90;;
45694;SDS011;31408;45.468;9.124;2023-03-14T05:32:47;24.08;;;11.60;;
45694;SDS011;31408;45.468;9.124;2023-03-14T05:35:38;22.92;;;11.73;;
45694;SDS011;31408;45.468;9.124;2023-03-14T05:38:24;21.73;;;11.05;;
45694;SDS011;31408;45.468;9.124;2023-03-14T05:41:22;21.88;;;11.50;;
45694;SDS011;31408;45.468;9.124;2023-03-14T05:44:16;21.27;;;9.85;;
45694;SDS011;31408;45.468;9.124;2023-03-14T05:47:00;21.52;;;11.00;;
45694;SDS011;31408;45.468;9.124;2023-03-14T05:49:35;26.90;;;12.65;;
45694;SDS011;31408;45.468;9.124;2023-03-14T05:52:13;20.80;;;10.52;;
45694;SDS011;31408;45.468;9.124;2023-03-14T05:55:12;26.10;;;11.35;;
45694;SDS011;31408;45.468;9.124;2023-03-14T05:57:49;26.23;;;11.50;;
45694;SDS011;31408;45.468;9.124;2023-03-14T06:00:23;18.25;;;10.07;;
45694;SDS011;31408;45.468;9.124;2023-03-14T06:03:04;21.42;;;11.32;;
45694;SDS011;31408;45.468;9.124;2023-03-14T06:05:33;25.63;;;12.35;;
45694;SDS011;31408;45.468;9.124;2023-03-14T06:08:00;24.75;;;12.35;;
45694;SDS011;31408;45.468;9.124;2023-03-14T06:10:28;22.85;;;12.02;;
45694;SDS011;31408;45.468;9.124;2023-03-14T06:12:54;23.15;;;11.77;;
45694;SDS011;31408;45.468;9.124;2023-03-14T06:15:20;25.67;;;13.48;;
45694;SDS011;31408;45.468;9.124;2023-03-14T06:17:48;23.83;;;12.95;;
45694;SDS011;31408;45.468;9.124;2023-03-14T06:20:15;27.25;;;15.27;;
45694;SDS011;31408;45.468;9.124;2023-03-14T06:22:41;29.15;;;15.77;;
45694;SDS011;31408;45.468;9.124;2023-03-14T06:25:08;29.48;;;14.65;;
45694;SDS011;31408;45.468;9.124;2023-03-14T06:27:33;28.17;;;13.50;;
45694;SDS011;31408;45.468;9.124;2023-03-14T06:29:59;34.45;;;13.40;;
45694;SDS011;31408;45.468;9.124;2023-03-14T06:32:25;25.70;;;13.82;;
45694;SDS011;31408;45.468;9.124;2023-03-14T06:34:53;28.98;;;12.93;;
45694;SDS011;31408;45.468;9.124;2023-03-14T06:37:19;35.15;;;15.85;;
45694;SDS011;31408;45.468;9.124;2023-03-14T06:39:45;25.55;;;14.07;;
45694;SDS011;31408;45.468;9.124;2023-03-14T06:42:20;28.25;;;15.13;;
45694;SDS011;31408;45.468;9.124;2023-03-14T06:44:51;25.40;;;13.27;;
45694;SDS011;31408;45.468;9.124;2023-03-14T06:47:17;24.65;;;13.20;;
45694;SDS011;31408;45.468;9.124;2023-03-14T06:49:44;27.83;;;14.60;;
45694;SDS011;31408;45.468;9.124;2023-03-14T06:52:10;27.67;;;13.95;;
45694;SDS011;31408;45.468;9.124;2023-03-14T06:54:36;30.90;;;15.10;;
45694;SDS011;31408;45.468;9.124;2023-03-14T06:57:01;30.38;;;16.75;;
45694;SDS011;31408;45.468;9.124;2023-03-14T06:59:29;27.50;;;15.63;;
45694;SDS011;31408;45.468;9.124;2023-03-14T07:01:55;35.67;;;20.80;;
45694;SDS011;31408;45.468;9.124;2023-03-14T07:04:26;32.38;;;17.92;;
45694;SDS011;31408;45.468;9.124;2023-03-14T07:06:52;29.95;;;17.05;;
45694;SDS011;31408;45.468;9.124;2023-03-14T07:09:17;31.08;;;14.93;;
45694;SDS011;31408;45.468;9.124;2023-03-14T07:11:48;32.97;;;15.57;;
45694;SDS011;31408;45.468;9.124;2023-03-14T07:14:15;34.15;;;16.75;;
45694;SDS011;31408;45.468;9.124;2023-03-14T07:16:41;33.85;;;17.73;;
45694;SDS011;31408;45.468;9.124;2023-03-14T07:19:07;36.85;;;16.88;;
45694;SDS011;31408;45.468;9.124;2023-03-14T07:21:33;40.15;;;19.17;;
45694;SDS011;31408;45.468;9.124;2023-03-14T07:24:02;40.92;;;19.60;;
45694;SDS011;31408;45.468;9.124;2023-03-14T07:26:30;37.78;;;21.35;;
45694;SDS011;31408;45.468;9.124;2023-03-14T07:28:56;40.83;;;19.58;;
45694;SDS011;31408;45.468;9.124;2023-03-14T07:31:22;36.83;;;19.55;;
45694;SDS011;31408;45.468;9.124;2023-03-14T07:33:47;33.63;;;16.90;;
45694;SDS011;31408;45.468;9.124;2023-03-14T07:36:13;30.05;;;15.50;;
45694;SDS011;31408;45.468;9.124;2023-03-14T07:38:42;31.15;;;15.55;;
45694;SDS011;31408;45.468;9.124;2023-03-14T07:41:33;25.55;;;13.27;;
45694;SDS011;31408;45.468;9.124;2023-03-14T07:44:18;25.38;;;13.85;;
45694;SDS011;31408;45.468;9.124;2023-03-14T07:46:44;26.33;;;13.50;;
45694;SDS011;31408;45.468;9.124;2023-03-14T07:49:09;23.13;;;12.00;;
45694;SDS011;31408;45.468;9.124;2023-03-14T07:51:35;24.25;;;13.43;;
45694;SDS011;31408;45.468;9.124;2023-03-14T07:54:00;26.17;;;14.02;;
45694;SDS011;31408;45.468;9.124;2023-03-14T07:56:26;24.40;;;12.38;;
45694;SDS011;31408;45.468;9.124;2023-03-14T07:58:51;25.33;;;12.85;;
45694;SDS011;31408;45.468;9.124;2023-03-14T08:01:17;24.90;;;13.25;;
45694;SDS011;31408;45.468;9.124;2023-03-14T08:03:42;28.02;;;12.85;;
45694;SDS011;31408;45.468;9.124;2023-03-14T08:06:08;23.10;;;11.82;;
45694;SDS011;31408;45.468;9.124;2023-03-14T08:08:33;24.30;;;13.15;;
45694;SDS011;31408;45.468;9.124;2023-03-14T08:11:05;21.65;;;10.80;;
45694;SDS011;31408;45.468;9.124;2023-03-14T08:13:33;24.95;;;12.82;;
45694;SDS011;31408;45.468;9.124;2023-03-14T08:15:59;24.95;;;13.07;;
45694;SDS011;31408;45.468;9.124;2023-03-14T08:18:25;26.23;;;13.43;;
45694;SDS011;31408;45.468;9.124;2023-03-14T08:20:50;28.63;;;15.70;;
45694;SDS011;31408;45.468;9.124;2023-03-14T08:23:16;24.33;;;13.32;;
45694;SDS011;31408;45.468;9.124;2023-03-14T08:25:41;29.98;;;13.52;;
45694;SDS011;31408;45.468;9.124;2023-03-14T08:28:07;24.75;;;14.02;;
45694;SDS011;31408;45.468;9.124;2023-03-14T08:30:32;24.15;;;12.35;;
45694;SDS011;31408;45.468;9.124;2023-03-14T08:32:58;24.55;;;13.25;;
45694;SDS011;31408;45.468;9.124;2023-03-14T08:35:24;25.15;;;12.35;;
45694;SDS011;31408;45.468;9.124;2023-03-14T08:37:50;28.23;;;13.02;;
45694;SDS011;31408;45.468;9.124;2023-03-14T08:40:17;22.23;;;11.27;;
45694;SDS011;31408;45.468;9.124;2023-03-14T08:42:42;26.67;;;12.80;;
45694;SDS011;31408;45.468;9.124;2023-03-14T08:45:08;23.48;;;11.68;;
45694;SDS011;31408;45.468;9.124;2023-03-14T08:47:39;24.85;;;12.05;;
45694;SDS011;31408;45.468;9.124;2023-03-14T08:50:05;25.35;;;13.45;;
45694;SDS011;31408;45.468;9.124;2023-03-14T08:52:31;20.88;;;10.73;;
45694;SDS011;31408;45.468;9.124;2023-03-14T08:54:57;25.10;;;11.13;;
45694;SDS011;31408;45.468;9.124;2023-03-14T08:57:23;17.00;;;9.25;;
45694;SDS011;31408;45.468;9.124;2023-03-14T08:59:53;20.50;;;10.80;;
45694;SDS011;31408;45.468;9.124;2023-03-14T09:02:22;20.38;;;10.48;;
45694;SDS011;31408;45.468;9.124;2023-03-14T09:04:49;17.70;;;9.15;;
45694;SDS011;31408;45.468;9.124;2023-03-14T09:07:15;22.13;;;9.63;;
45694;SDS011;31408;45.468;9.124;2023-03-14T09:09:40;19.10;;;10.00;;
45694;SDS011;31408;45.468;9.124;2023-03-14T09:12:06;22.45;;;10.32;;
45694;SDS011;31408;45.468;9.124;2023-03-14T09:14:31;20.13;;;10.55;;
45694;SDS011;31408;45.468;9.124;2023-03-14T09:16:57;21.88;;;11.82;;
45694;SDS011;31408;45.468;9.124;2023-03-14T09:19:22;21.88;;;11.73;;
45694;SDS011;31408;45.468;9.124;2023-03-14T09:21:48;17.88;;;10.45;;
45694;SDS011;31408;45.468;9.124;2023-03-14T09:24:13;21.98;;;11.35;;
45694;SDS011;31408;45.468;9.124;2023-03-14T09:26:39;20.83;;;10.35;;
45694;SDS011;31408;45.468;9.124;2023-03-14T09:29:05;21.13;;;11.15;;
45694;SDS011;31408;45.468;9.124;2023-03-14T09:31:30;21.45;;;11.50;;
45694;SDS011;31408;45.468;9.124;2023-03-14T09:33:56;23.20;;;10.20;;
45694;SDS011;31408;45.468;9.124;2023-03-14T09:36:21;21.75;;;10.68;;
45694;SDS011;31408;45.468;9.124;2023-03-14T09:38:47;20.63;;;10.98;;
45694;SDS011;31408;45.468;9.124;2023-03-14T09:41:33;21.08;;;10.20;;
45694;SDS011;31408;45.468;9.124;2023-03-14T09:44:04;20.67;;;10.10;;
45694;SDS011;31408;45.468;9.124;2023-03-14T09:46:31;22.20;;;10.18;;
45694;SDS011;31408;45.468;9.124;2023-03-14T09:49:00;23.25;;;11.23;;
45694;SDS011;31408;45.468;9.124;2023-03-14T09:51:26;28.27;;;10.75;;
45694;SDS011;31408;45.468;9.124;2023-03-14T09:53:52;21.45;;;9.80;;
45694;SDS011;31408;45.468;9.124;2023-03-14T09:56:27;20.20;;;9.10;;
45694;SDS011;31408;45.468;9.124;2023-03-14T09:59:01;20.23;;;9.60;;
45694;SDS011;31408;45.468;9.124;2023-03-14T10:01:29;19.20;;;9.45;;
45694;SDS011;31408;45.468;9.124;2023-03-14T10:03:57;19.58;;;9.30;;
45694;SDS011;31408;45.468;9.124;2023-03-14T10:06:29;22.00;;;9.23;;
45694;SDS011;31408;45.468;9.124;2023-03-14T10:08:55;17.25;;;8.80;;
45694;SDS011;31408;45.468;9.124;2023-03-14T10:11:22;19.63;;;9.20;;
45694;SDS011;31408;45.468;9.124;2023-03-14T10:14:09;14.80;;;8.80;;
45694;SDS011;31408;45.468;9.124;2023-03-14T10:16:39;18.40;;;9.80;;
45694;SDS011;31408;45.468;9.124;2023-03-14T10:19:07;23.40;;;10.60;;
45694;SDS011;31408;45.468;9.124;2023-03-14T10:21:50;19.08;;;8.95;;
45694;SDS011;31408;45.468;9.124;2023-03-14T10:24:22;17.65;;;8.52;;
45694;SDS011;31408;45.468;9.124;2023-03-14T10:26:57;18.30;;;9.70;;
45694;SDS011;31408;45.468;9.124;2023-03-14T10:29:26;18.00;;;9.15;;
45694;SDS011;31408;45.468;9.124;2023-03-14T10:34:28;17.15;;;8.15;;
45694;SDS011;31408;45.468;9.124;2023-03-14T10:36:59;16.85;;;7.75;;
45694;SDS011;31408;45.468;9.124;2023-03-14T10:42:21;15.02;;;8.13;;
45694;SDS011;31408;45.468;9.124;2023-03-14T10:45:00;19.70;;;8.68;;
45694;SDS011;31408;45.468;9.124;2023-03-14T10:47:27;16.77;;;8.48;;
45694;SDS011;31408;45.468;9.124;2023-03-14T10:49:53;19.45;;;8.98;;
45694;SDS011;31408;45.468;9.124;2023-03-14T10:52:29;21.02;;;10.02;;
45694;SDS011;31408;45.468;9.124;2023-03-14T10:54:56;26.92;;;11.23;;
45694;SDS011;31408;45.468;9.124;2023-03-14T10:57:27;19.08;;;9.07;;
45694;SDS011;31408;45.468;9.124;2023-03-14T10:59:53;26.45;;;11.95;;
45694;SDS011;31408;45.468;9.124;2023-03-14T11:07:36;23.65;;;10.20;;
45694;SDS011;31408;45.468;9.124;2023-03-14T11:10:23;22.17;;;9.48;;
45694;SDS011;31408;45.468;9.124;2023-03-14T11:16:06;20.77;;;9.40;;
45694;SDS011;31408;45.468;9.124;2023-03-14T11:26:52;20.20;;;9.82;;
45694;SDS011;31408;45.468;9.124;2023-03-14T11:32:12;17.35;;;8.52;;
45694;SDS011;31408;45.468;9.124;2023-03-14T11:34:40;16.70;;;8.03;;
45694;SDS011;31408;45.468;9.124;2023-03-14T11:40:06;19.92;;;9.20;;
45694;SDS011;31408;45.468;9.124;2023-03-14T11:42:36;18.88;;;9.63;;
45694;SDS011;31408;45.468;9.124;2023-03-14T11:45:03;22.00;;;10.27;;
45694;SDS011;31408;45.468;9.124;2023-03-14T11:47:33;18.02;;;8.82;;
45694;SDS011;31408;45.468;9.124;2023-03-14T11:50:12;17.47;;;8.60;;
45694;SDS011;31408;45.468;9.124;2023-03-14T11:57:56;18.48;;;9.75;;
45694;SDS011;31408;45.468;9.124;2023-03-14T12:00:25;16.67;;;8.15;;
45694;SDS011;31408;45.468;9.124;2023-03-14T12:03:14;18.75;;;9.30;;
45694;SDS011;31408;45.468;9.124;2023-03-14T12:08:42;19.13;;;11.07;;
45694;SDS011;31408;45.468;9.124;2023-03-14T12:11:10;18.88;;;9.40;;
45694;SDS011;31408;45.468;9.124;2023-03-14T12:13:39;18.13;;;9.07;;
45694;SDS011;31408;45.468;9.124;2023-03-14T12:16:06;18.13;;;8.30;;
45694;SDS011;31408;45.468;9.124;2023-03-14T12:18:43;19.27;;;9.07;;
45694;SDS011;31408;45.468;9.124;2023-03-14T12:21:11;18.23;;;8.38;;
45694;SDS011;31408;45.468;9.124;2023-03-14T12:23:41;20.52;;;9.18;;
45694;SDS011;31408;45.468;9.124;2023-03-14T12:26:21;21.45;;;9.60;;
45694;SDS011;31408;45.468;9.124;2023-03-14T12:28:51;23.20;;;9.57;;
45694;SDS011;31408;45.468;9.124;2023-03-14T12:31:36;14.90;;;8.20;;
45694;SDS011;31408;45.468;9.124;2023-03-14T12:45:10;17.48;;;9.52;;
45694;SDS011;31408;45.468;9.124;2023-03-14T12:50:18;19.08;;;8.70;;
45694;SDS011;31408;45.468;9.124;2023-03-14T12:55:44;19.02;;;9.40;;
45694;SDS011;31408;45.468;9.124;2023-03-14T12:58:16;16.60;;;8.93;;
45694;SDS011;31408;45.468;9.124;2023-03-14T13:00:43;17.50;;;9.25;;
45694;SDS011;31408;45.468;9.124;2023-03-14T13:03:36;17.92;;;9.60;;
45694;SDS011;31408;45.468;9.124;2023-03-14T13:11:51;12.57;;;7.47;;
45694;SDS011;31408;45.468;9.124;2023-03-14T13:14:18;17.85;;;9.55;;
45694;SDS011;31408;45.468;9.124;2023-03-14T13:16:44;14.52;;;7.78;;
45694;SDS011;31408;45.468;9.124;2023-03-14T13:19:16;20.52;;;8.38;;
45694;SDS011;31408;45.468;9.124;2023-03-14T13:21:44;18.27;;;8.65;;
45694;SDS011;31408;45.468;9.124;2023-03-14T13:24:21;15.00;;;7.95;;
45694;SDS011;31408;45.468;9.124;2023-03-14T13:26:48;18.35;;;8.63;;
45694;SDS011;31408;45.468;9.124;2023-03-14T13:31:46;17.35;;;8.75;;
45694;SDS011;31408;45.468;9.124;2023-03-14T13:34:13;16.27;;;7.28;;
45694;SDS011;31408;45.468;9.124;2023-03-14T13:36:39;13.50;;;7.38;;
45694;SDS011;31408;45.468;9.124;2023-03-14T13:39:06;14.27;;;7.43;;
45694;SDS011;31408;45.468;9.124;2023-03-14T13:41:38;16.52;;;7.65;;
45694;SDS011;31408;45.468;9.124;2023-03-14T13:44:05;19.58;;;7.05;;
45694;SDS011;31408;45.468;9.124;2023-03-14T13:46:33;16.23;;;7.28;;
45694;SDS011;31408;45.468;9.124;2023-03-14T13:49:01;12.55;;;6.68;;
45694;SDS011;31408;45.468;9.124;2023-03-14T13:51:28;9.68;;;5.97;;
45694;SDS011;31408;45.468;9.124;2023-03-14T13:53:56;12.90;;;6.97;;
45694;SDS011;31408;45.468;9.124;2023-03-14T13:56:26;18.05;;;7.75;;
45694;SDS011;31408;45.468;9.124;2023-03-14T13:58:54;14.77;;;7.38;;
45694;SDS011;31408;45.468;9.124;2023-03-14T14:01:20;16.60;;;8.18;;
45694;SDS011;31408;45.468;9.124;2023-03-14T14:03:52;19.50;;;8.05;;
45694;SDS011;31408;45.468;9.124;2023-03-14T14:06:23;15.93;;;7.60;;
45694;SDS011;31408;45.468;9.124;2023-03-14T14:08:52;13.25;;;7.38;;
45694;SDS011;31408;45.468;9.124;2023-03-14T14:11:26;15.23;;;7.53;;
45694;SDS011;31408;45.468;9.124;2023-03-14T14:13:55;14.10;;;7.05;;
45694;SDS011;31408;45.468;9.124;2023-03-14T14:16:22;14.60;;;6.65;;
45694;SDS011;31408;45.468;9.124;2023-03-14T14:18:50;17.80;;;7.78;;
45694;SDS011;31408;45.468;9.124;2023-03-14T14:21:16;16.00;;;7.25;;
45694;SDS011;31408;45.468;9.124;2023-03-14T14:23:42;11.75;;;6.43;;
45694;SDS011;31408;45.468;9.124;2023-03-14T14:26:07;15.38;;;7.93;;
45694;SDS011;31408;45.468;9.124;2023-03-14T14:28:36;16.63;;;8.93;;
45694;SDS011;31408;45.468;9.124;2023-03-14T14:31:21;18.67;;;8.98;;
45694;SDS011;31408;45.468;9.124;2023-03-14T14:36:37;17.05;;;8.10;;
45694;SDS011;31408;45.468;9.124;2023-03-14T14:41:47;12.63;;;7.55;;
45694;SDS011;31408;45.468;9.124;2023-03-14T14:44:16;17.60;;;8.57;;
45694;SDS011;31408;45.468;9.124;2023-03-14T14:46:43;20.55;;;10.82;;
45694;SDS011;31408;45.468;9.124;2023-03-14T14:49:10;17.63;;;9.20;;
45694;SDS011;31408;45.468;9.124;2023-03-14T14:51:39;18.33;;;9.48;;
45694;SDS011;31408;45.468;9.124;2023-03-14T14:54:14;21.20;;;9.45;;
45694;SDS011;31408;45.468;9.124;2023-03-14T14:56:46;22.17;;;10.90;;
45694;SDS011;31408;45.468;9.124;2023-03-14T14:59:20;21.08;;;11.00;;
45694;SDS011;31408;45.468;9.124;2023-03-14T15:01:56;17.52;;;9.40;;
45694;SDS011;31408;45.468;9.124;2023-03-14T15:04:25;23.83;;;13.02;;
45694;SDS011;31408;45.468;9.124;2023-03-14T15:06:51;21.98;;;11.07;;
45694;SDS011;31408;45.468;9.124;2023-03-14T15:09:17;26.48;;;11.40;;
45694;SDS011;31408;45.468;9.124;2023-03-14T15:11:45;21.95;;;11.38;;
45694;SDS011;31408;45.468;9.124;2023-03-14T15:14:11;16.73;;;10.35;;
45694;SDS011;31408;45.468;9.124;2023-03-14T15:16:36;23.50;;;10.93;;
45694;SDS011;31408;45.468;9.124;2023-03-14T15:19:08;22.95;;;11.27;;
45694;SDS011;31408;45.468;9.124;2023-03-14T15:21:36;22.27;;;11.45;;
45694;SDS011;31408;45.468;9.124;2023-03-14T15:24:03;21.48;;;11.43;;
45694;SDS011;31408;45.468;9.124;2023-03-14T15:26:29;24.05;;;11.30;;
45694;SDS011;31408;45.468;9.124;2023-03-14T15:28:55;22.05;;;10.73;;
45694;SDS011;31408;45.468;9.124;2023-03-14T15:31:20;22.83;;;11.40;;
45694;SDS011;31408;45.468;9.124;2023-03-14T15:33:46;20.25;;;10.05;;
45694;SDS011;31408;45.468;9.124;2023-03-14T15:36:23;19.50;;;10.85;;
45694;SDS011;31408;45.468;9.124;2023-03-14T15:38:50;21.77;;;10.70;;
45694;SDS011;31408;45.468;9.124;2023-03-14T15:41:17;20.73;;;10.45;;
45694;SDS011;31408;45.468;9.124;2023-03-14T15:43:43;19.42;;;9.95;;
45694;SDS011;31408;45.468;9.124;2023-03-14T15:46:09;23.13;;;11.10;;
45694;SDS011;31408;45.468;9.124;2023-03-14T15:48:35;21.23;;;11.00;;
45694;SDS011;31408;45.468;9.124;2023-03-14T15:51:00;23.30;;;11.98;;
45694;SDS011;31408;45.468;9.124;2023-03-14T15:53:26;22.10;;;10.93;;
45694;SDS011;31408;45.468;9.124;2023-03-14T15:55:51;22.77;;;11.10;;
45694;SDS011;31408;45.468;9.124;2023-03-14T15:58:17;22.33;;;11.38;;
45694;SDS011;31408;45.468;9.124;2023-03-14T16:00:43;22.27;;;11.20;;
45694;SDS011;31408;45.468;9.124;2023-03-14T16:03:08;22.88;;;12.75;;
45694;SDS011;31408;45.468;9.124;2023-03-14T16:05:35;21.63;;;11.35;;
45694;SDS011;31408;45.468;9.124;2023-03-14T16:08:01;21.23;;;11.05;;
45694;SDS011;31408;45.468;9.124;2023-03-14T16:10:28;22.98;;;10.48;;
45694;SDS011;31408;45.468;9.124;2023-03-14T16:12:54;26.73;;;11.90;;